Terminal Aerodrome Forecast
Issued by NWS

Home | Current Version | Previous Version | Text Only | Print | Product List | Glossary On
Versions: 1 2 3 4 5 6 7 8 9 10 11 12 13 14 15 16 17 18 19 20 21 22 23 24 25 26 27 28
000
FTUS41 KOKX 100832 AAA
TAFTEB
TAF AMD
KTEB 100832Z 1009/1106 VRB02KT 6SM -SN FEW015 OVC025
      TEMPO 1009/1011 3SM -SN BKN006 OVC015
     FM101300 29009KT P6SM SCT025 BKN035
     FM101600 27012G21KT P6SM BKN040
     FM110100 29009KT P6SM BKN040=

USA.gov is the U.S. government's official web portal to all federal, state and local government web resources and services.